sensor_id;sensor_type;location;lat;lon;timestamp;P1;durP1;ratioP1;P2;durP2;ratioP2
47289;SDS011;33197;52.524;13.444;2022-07-01T00:01:20;11.67;;;10.50;;
47289;SDS011;33197;52.524;13.444;2022-07-01T00:04:01;11.75;;;10.65;;
47289;SDS011;33197;52.524;13.444;2022-07-01T00:06:50;14.10;;;12.02;;
47289;SDS011;33197;52.524;13.444;2022-07-01T00:09:22;13.45;;;11.32;;
47289;SDS011;33197;52.524;13.444;2022-07-01T00:11:57;13.05;;;11.85;;
47289;SDS011;33197;52.524;13.444;2022-07-01T00:14:31;13.43;;;12.10;;
47289;SDS011;33197;52.524;13.444;2022-07-01T00:17:21;17.27;;;11.98;;
47289;SDS011;33197;52.524;13.444;2022-07-01T00:19:55;19.40;;;12.05;;
47289;SDS011;33197;52.524;13.444;2022-07-01T00:22:29;13.57;;;12.27;;
47289;SDS011;33197;52.524;13.444;2022-07-01T00:25:11;12.95;;;11.73;;
47289;SDS011;33197;52.524;13.444;2022-07-01T00:27:47;13.63;;;12.32;;
47289;SDS011;33197;52.524;13.444;2022-07-01T00:30:20;15.65;;;14.05;;
47289;SDS011;33197;52.524;13.444;2022-07-01T00:33:03;13.13;;;11.93;;
47289;SDS011;33197;52.524;13.444;2022-07-01T00:35:45;15.75;;;12.82;;
47289;SDS011;33197;52.524;13.444;2022-07-01T00:38:25;15.52;;;13.00;;
47289;SDS011;33197;52.524;13.444;2022-07-01T00:41:06;15.55;;;14.05;;
47289;SDS011;33197;52.524;13.444;2022-07-01T00:43:34;15.20;;;13.63;;
47289;SDS011;33197;52.524;13.444;2022-07-01T00:46:31;14.68;;;13.27;;
47289;SDS011;33197;52.524;13.444;2022-07-01T00:48:59;14.38;;;13.07;;
47289;SDS011;33197;52.524;13.444;2022-07-01T00:51:28;15.57;;;13.93;;
47289;SDS011;33197;52.524;13.444;2022-07-01T00:53:55;16.58;;;14.18;;
47289;SDS011;33197;52.524;13.444;2022-07-01T00:56:25;14.88;;;13.25;;
47289;SDS011;33197;52.524;13.444;2022-07-01T00:58:53;16.27;;;13.32;;
47289;SDS011;33197;52.524;13.444;2022-07-01T01:01:22;18.52;;;13.98;;
47289;SDS011;33197;52.524;13.444;2022-07-01T01:03:50;16.35;;;14.75;;
47289;SDS011;33197;52.524;13.444;2022-07-01T01:06:17;14.43;;;13.13;;
47289;SDS011;33197;52.524;13.444;2022-07-01T01:08:45;15.77;;;14.13;;
47289;SDS011;33197;52.524;13.444;2022-07-01T01:11:13;16.25;;;14.55;;
47289;SDS011;33197;52.524;13.444;2022-07-01T01:13:42;19.25;;;15.02;;
47289;SDS011;33197;52.524;13.444;2022-07-01T01:16:19;19.45;;;15.07;;
47289;SDS011;33197;52.524;13.444;2022-07-01T01:18:47;16.52;;;14.63;;
47289;SDS011;33197;52.524;13.444;2022-07-01T01:21:18;17.00;;;15.23;;
47289;SDS011;33197;52.524;13.444;2022-07-01T01:23:46;18.42;;;16.02;;
47289;SDS011;33197;52.524;13.444;2022-07-01T01:26:21;19.80;;;16.08;;
47289;SDS011;33197;52.524;13.444;2022-07-01T01:29:38;16.65;;;14.82;;
47289;SDS011;33197;52.524;13.444;2022-07-01T01:36:00;17.60;;;15.90;;
47289;SDS011;33197;52.524;13.444;2022-07-01T01:38:41;17.30;;;15.50;;
47289;SDS011;33197;52.524;13.444;2022-07-01T01:41:19;18.90;;;17.00;;
47289;SDS011;33197;52.524;13.444;2022-07-01T01:43:49;18.05;;;16.15;;
47289;SDS011;33197;52.524;13.444;2022-07-01T01:46:27;19.67;;;17.65;;
47289;SDS011;33197;52.524;13.444;2022-07-01T01:49:09;25.52;;;17.52;;
47289;SDS011;33197;52.524;13.444;2022-07-01T01:51:49;19.48;;;17.48;;
47289;SDS011;33197;52.524;13.444;2022-07-01T01:54:21;21.33;;;17.90;;
47289;SDS011;33197;52.524;13.444;2022-07-01T01:56:59;20.63;;;18.63;;
47289;SDS011;33197;52.524;13.444;2022-07-01T01:59:40;19.67;;;17.67;;
47289;SDS011;33197;52.524;13.444;2022-07-01T02:05:49;20.73;;;18.08;;
47289;SDS011;33197;52.524;13.444;2022-07-01T02:08:26;22.42;;;18.50;;
47289;SDS011;33197;52.524;13.444;2022-07-01T02:11:04;20.27;;;18.35;;
47289;SDS011;33197;52.524;13.444;2022-07-01T02:13:39;22.17;;;18.02;;
47289;SDS011;33197;52.524;13.444;2022-07-01T02:16:06;19.50;;;17.52;;
47289;SDS011;33197;52.524;13.444;2022-07-01T02:18:34;19.20;;;17.30;;
47289;SDS011;33197;52.524;13.444;2022-07-01T02:21:01;19.45;;;17.45;;
47289;SDS011;33197;52.524;13.444;2022-07-01T02:23:36;19.92;;;17.63;;
47289;SDS011;33197;52.524;13.444;2022-07-01T02:26:03;20.48;;;18.30;;
47289;SDS011;33197;52.524;13.444;2022-07-01T02:28:38;19.83;;;17.75;;
47289;SDS011;33197;52.524;13.444;2022-07-01T02:31:27;21.13;;;18.90;;
47289;SDS011;33197;52.524;13.444;2022-07-01T02:34:18;22.08;;;20.02;;
47289;SDS011;33197;52.524;13.444;2022-07-01T02:37:18;21.27;;;19.15;;
47289;SDS011;33197;52.524;13.444;2022-07-01T02:40:17;22.63;;;19.02;;
47289;SDS011;33197;52.524;13.444;2022-07-01T02:42:49;20.10;;;18.00;;
47289;SDS011;33197;52.524;13.444;2022-07-01T02:45:38;20.25;;;18.15;;
47289;SDS011;33197;52.524;13.444;2022-07-01T02:48:06;22.92;;;20.65;;
47289;SDS011;33197;52.524;13.444;2022-07-01T02:50:51;21.45;;;19.35;;
47289;SDS011;33197;52.524;13.444;2022-07-01T02:53:47;21.27;;;19.08;;
47289;SDS011;33197;52.524;13.444;2022-07-01T02:56:33;22.48;;;20.33;;
47289;SDS011;33197;52.524;13.444;2022-07-01T02:59:11;24.45;;;19.77;;
47289;SDS011;33197;52.524;13.444;2022-07-01T03:01:38;23.02;;;20.63;;
47289;SDS011;33197;52.524;13.444;2022-07-01T03:04:06;24.20;;;19.98;;
47289;SDS011;33197;52.524;13.444;2022-07-01T03:06:33;23.25;;;20.88;;
47289;SDS011;33197;52.524;13.444;2022-07-01T03:09:01;22.38;;;20.05;;
47289;SDS011;33197;52.524;13.444;2022-07-01T03:11:28;21.52;;;19.33;;
47289;SDS011;33197;52.524;13.444;2022-07-01T03:13:55;22.60;;;20.30;;
47289;SDS011;33197;52.524;13.444;2022-07-01T03:16:23;22.35;;;20.13;;
47289;SDS011;33197;52.524;13.444;2022-07-01T03:18:51;23.30;;;20.75;;
47289;SDS011;33197;52.524;13.444;2022-07-01T03:21:18;22.52;;;20.35;;
47289;SDS011;33197;52.524;13.444;2022-07-01T03:23:46;23.55;;;21.20;;
47289;SDS011;33197;52.524;13.444;2022-07-01T03:26:13;24.23;;;21.92;;
47289;SDS011;33197;52.524;13.444;2022-07-01T03:28:42;24.40;;;20.85;;
47289;SDS011;33197;52.524;13.444;2022-07-01T03:31:09;24.65;;;22.17;;
47289;SDS011;33197;52.524;13.444;2022-07-01T03:33:36;21.35;;;19.17;;
47289;SDS011;33197;52.524;13.444;2022-07-01T03:36:04;27.52;;;21.15;;
47289;SDS011;33197;52.524;13.444;2022-07-01T03:38:31;26.52;;;22.92;;
47289;SDS011;33197;52.524;13.444;2022-07-01T03:40:59;23.15;;;20.85;;
47289;SDS011;33197;52.524;13.444;2022-07-01T03:43:26;26.92;;;22.23;;
47289;SDS011;33197;52.524;13.444;2022-07-01T03:45:53;28.67;;;20.13;;
47289;SDS011;33197;52.524;13.444;2022-07-01T03:48:21;25.25;;;21.98;;
47289;SDS011;33197;52.524;13.444;2022-07-01T03:50:48;26.38;;;20.98;;
47289;SDS011;33197;52.524;13.444;2022-07-01T03:53:15;24.85;;;22.25;;
47289;SDS011;33197;52.524;13.444;2022-07-01T03:56:01;27.45;;;22.38;;
47289;SDS011;33197;52.524;13.444;2022-07-01T03:58:28;25.02;;;22.55;;
47289;SDS011;33197;52.524;13.444;2022-07-01T04:00:56;22.92;;;20.52;;
47289;SDS011;33197;52.524;13.444;2022-07-01T04:03:23;23.02;;;20.73;;
47289;SDS011;33197;52.524;13.444;2022-07-01T04:05:50;26.27;;;23.58;;
47289;SDS011;33197;52.524;13.444;2022-07-01T04:08:18;24.83;;;21.23;;
47289;SDS011;33197;52.524;13.444;2022-07-01T04:10:46;23.67;;;21.30;;
47289;SDS011;33197;52.524;13.444;2022-07-01T04:13:13;23.17;;;20.88;;
47289;SDS011;33197;52.524;13.444;2022-07-01T04:15:58;25.67;;;21.75;;
47289;SDS011;33197;52.524;13.444;2022-07-01T04:18:27;24.33;;;21.77;;
47289;SDS011;33197;52.524;13.444;2022-07-01T04:20:54;22.80;;;19.67;;
47289;SDS011;33197;52.524;13.444;2022-07-01T04:23:41;25.05;;;21.83;;
47289;SDS011;33197;52.524;13.444;2022-07-01T04:26:08;23.45;;;20.02;;
47289;SDS011;33197;52.524;13.444;2022-07-01T04:28:56;23.67;;;20.92;;
47289;SDS011;33197;52.524;13.444;2022-07-01T04:31:24;28.73;;;22.17;;
47289;SDS011;33197;52.524;13.444;2022-07-01T04:33:51;26.27;;;22.50;;
47289;SDS011;33197;52.524;13.444;2022-07-01T04:36:18;22.58;;;20.38;;
47289;SDS011;33197;52.524;13.444;2022-07-01T04:38:46;24.27;;;21.73;;
47289;SDS011;33197;52.524;13.444;2022-07-01T04:41:13;24.70;;;21.92;;
47289;SDS011;33197;52.524;13.444;2022-07-01T04:43:59;24.98;;;21.40;;
47289;SDS011;33197;52.524;13.444;2022-07-01T04:46:26;24.02;;;21.48;;
47289;SDS011;33197;52.524;13.444;2022-07-01T04:48:54;26.35;;;23.02;;
47289;SDS011;33197;52.524;13.444;2022-07-01T04:51:21;26.00;;;23.45;;
47289;SDS011;33197;52.524;13.444;2022-07-01T04:53:49;27.77;;;23.02;;
47289;SDS011;33197;52.524;13.444;2022-07-01T04:56:16;24.05;;;21.55;;
47289;SDS011;33197;52.524;13.444;2022-07-01T04:58:44;26.05;;;22.42;;
47289;SDS011;33197;52.524;13.444;2022-07-01T05:01:13;26.10;;;23.50;;
47289;SDS011;33197;52.524;13.444;2022-07-01T05:03:41;22.80;;;20.50;;
47289;SDS011;33197;52.524;13.444;2022-07-01T05:06:08;24.08;;;21.55;;
47289;SDS011;33197;52.524;13.444;2022-07-01T05:08:35;28.08;;;21.13;;
47289;SDS011;33197;52.524;13.444;2022-07-01T05:11:03;31.05;;;21.85;;
47289;SDS011;33197;52.524;13.444;2022-07-01T05:13:31;24.55;;;21.55;;
47289;SDS011;33197;52.524;13.444;2022-07-01T05:15:58;24.52;;;21.73;;
47289;SDS011;33197;52.524;13.444;2022-07-01T05:18:26;23.65;;;21.25;;
47289;SDS011;33197;52.524;13.444;2022-07-01T05:21:12;24.13;;;21.58;;
47289;SDS011;33197;52.524;13.444;2022-07-01T05:23:58;23.30;;;19.67;;
47289;SDS011;33197;52.524;13.444;2022-07-01T05:26:26;24.60;;;22.20;;
47289;SDS011;33197;52.524;13.444;2022-07-01T05:28:53;23.80;;;21.42;;
47289;SDS011;33197;52.524;13.444;2022-07-01T05:31:21;25.48;;;20.60;;
47289;SDS011;33197;52.524;13.444;2022-07-01T05:33:48;23.17;;;20.63;;
47289;SDS011;33197;52.524;13.444;2022-07-01T05:36:16;23.83;;;20.42;;
47289;SDS011;33197;52.524;13.444;2022-07-01T05:38:43;22.55;;;20.13;;
47289;SDS011;33197;52.524;13.444;2022-07-01T05:41:10;25.02;;;21.30;;
47289;SDS011;33197;52.524;13.444;2022-07-01T05:43:37;22.00;;;19.70;;
47289;SDS011;33197;52.524;13.444;2022-07-01T05:46:05;23.27;;;19.80;;
47289;SDS011;33197;52.524;13.444;2022-07-01T05:48:32;22.50;;;20.33;;
47289;SDS011;33197;52.524;13.444;2022-07-01T05:50:59;21.83;;;18.75;;
47289;SDS011;33197;52.524;13.444;2022-07-01T05:53:27;22.55;;;20.13;;
47289;SDS011;33197;52.524;13.444;2022-07-01T05:55:54;25.00;;;21.08;;
47289;SDS011;33197;52.524;13.444;2022-07-01T05:58:21;28.20;;;20.80;;
47289;SDS011;33197;52.524;13.444;2022-07-01T06:00:48;29.35;;;21.77;;
47289;SDS011;33197;52.524;13.444;2022-07-01T06:03:16;28.77;;;20.73;;
47289;SDS011;33197;52.524;13.444;2022-07-01T06:05:43;27.05;;;20.15;;
47289;SDS011;33197;52.524;13.444;2022-07-01T06:08:10;21.63;;;19.35;;
47289;SDS011;33197;52.524;13.444;2022-07-01T06:10:38;24.83;;;18.73;;
47289;SDS011;33197;52.524;13.444;2022-07-01T06:13:05;23.90;;;18.83;;
47289;SDS011;33197;52.524;13.444;2022-07-01T06:15:34;27.10;;;19.02;;
47289;SDS011;33197;52.524;13.444;2022-07-01T06:18:02;34.72;;;21.73;;
47289;SDS011;33197;52.524;13.444;2022-07-01T06:20:29;20.48;;;18.38;;
47289;SDS011;33197;52.524;13.444;2022-07-01T06:22:56;22.08;;;19.77;;
47289;SDS011;33197;52.524;13.444;2022-07-01T06:25:24;22.73;;;19.80;;
47289;SDS011;33197;52.524;13.444;2022-07-01T06:27:52;25.92;;;19.83;;
47289;SDS011;33197;52.524;13.444;2022-07-01T06:30:19;21.40;;;18.90;;
47289;SDS011;33197;52.524;13.444;2022-07-01T06:32:47;21.88;;;19.40;;
47289;SDS011;33197;52.524;13.444;2022-07-01T06:35:14;26.65;;;19.38;;
47289;SDS011;33197;52.524;13.444;2022-07-01T06:37:41;21.63;;;18.83;;
47289;SDS011;33197;52.524;13.444;2022-07-01T06:40:12;21.88;;;18.40;;
47289;SDS011;33197;52.524;13.444;2022-07-01T06:42:39;26.15;;;18.17;;
47289;SDS011;33197;52.524;13.444;2022-07-01T06:45:07;21.90;;;18.52;;
47289;SDS011;33197;52.524;13.444;2022-07-01T06:47:34;21.67;;;19.23;;
47289;SDS011;33197;52.524;13.444;2022-07-01T06:50:03;40.10;;;21.17;;
47289;SDS011;33197;52.524;13.444;2022-07-01T06:52:34;24.38;;;19.10;;
47289;SDS011;33197;52.524;13.444;2022-07-01T06:55:01;23.05;;;19.67;;
47289;SDS011;33197;52.524;13.444;2022-07-01T06:57:29;22.25;;;19.75;;
47289;SDS011;33197;52.524;13.444;2022-07-01T06:59:56;23.77;;;20.85;;
47289;SDS011;33197;52.524;13.444;2022-07-01T07:02:23;21.58;;;19.30;;
47289;SDS011;33197;52.524;13.444;2022-07-01T07:04:55;22.63;;;20.23;;
47289;SDS011;33197;52.524;13.444;2022-07-01T07:07:27;20.65;;;18.40;;
47289;SDS011;33197;52.524;13.444;2022-07-01T07:09:55;23.75;;;20.20;;
47289;SDS011;33197;52.524;13.444;2022-07-01T07:12:24;25.02;;;20.30;;
47289;SDS011;33197;52.524;13.444;2022-07-01T07:14:52;20.73;;;18.50;;
47289;SDS011;33197;52.524;13.444;2022-07-01T07:17:20;22.15;;;19.95;;
47289;SDS011;33197;52.524;13.444;2022-07-01T07:19:49;19.45;;;17.45;;
47289;SDS011;33197;52.524;13.444;2022-07-01T07:22:17;21.20;;;19.02;;
47289;SDS011;33197;52.524;13.444;2022-07-01T07:24:44;25.10;;;20.25;;
47289;SDS011;33197;52.524;13.444;2022-07-01T07:27:11;20.83;;;17.83;;
47289;SDS011;33197;52.524;13.444;2022-07-01T07:29:39;18.00;;;16.10;;
47289;SDS011;33197;52.524;13.444;2022-07-01T07:32:15;24.35;;;18.65;;
47289;SDS011;33197;52.524;13.444;2022-07-01T07:35:18;22.38;;;20.00;;
47289;SDS011;33197;52.524;13.444;2022-07-01T07:37:57;22.92;;;19.10;;
47289;SDS011;33197;52.524;13.444;2022-07-01T07:40:35;19.95;;;17.85;;
47289;SDS011;33197;52.524;13.444;2022-07-01T07:43:06;19.25;;;17.27;;
47289;SDS011;33197;52.524;13.444;2022-07-01T07:45:35;18.63;;;16.58;;
47289;SDS011;33197;52.524;13.444;2022-07-01T07:48:05;15.57;;;13.85;;
47289;SDS011;33197;52.524;13.444;2022-07-01T07:50:33;17.63;;;13.45;;
47289;SDS011;33197;52.524;13.444;2022-07-01T07:53:01;15.13;;;13.60;;
47289;SDS011;33197;52.524;13.444;2022-07-01T07:55:28;20.50;;;14.82;;
47289;SDS011;33197;52.524;13.444;2022-07-01T07:57:55;19.15;;;14.50;;
47289;SDS011;33197;52.524;13.444;2022-07-01T08:00:23;18.80;;;15.40;;
47289;SDS011;33197;52.524;13.444;2022-07-01T08:02:50;17.02;;;14.30;;
47289;SDS011;33197;52.524;13.444;2022-07-01T08:05:17;20.90;;;14.88;;
47289;SDS011;33197;52.524;13.444;2022-07-01T08:07:44;16.30;;;13.38;;
47289;SDS011;33197;52.524;13.444;2022-07-01T08:10:12;20.25;;;13.65;;
47289;SDS011;33197;52.524;13.444;2022-07-01T08:12:40;14.90;;;12.93;;
47289;SDS011;33197;52.524;13.444;2022-07-01T08:15:07;17.23;;;12.63;;
47289;SDS011;33197;52.524;13.444;2022-07-01T08:17:34;18.05;;;13.48;;
47289;SDS011;33197;52.524;13.444;2022-07-01T08:20:02;15.85;;;13.35;;
47289;SDS011;33197;52.524;13.444;2022-07-01T08:22:29;13.10;;;11.50;;
47289;SDS011;33197;52.524;13.444;2022-07-01T08:24:57;14.27;;;12.10;;
47289;SDS011;33197;52.524;13.444;2022-07-01T08:27:24;13.48;;;12.07;;
47289;SDS011;33197;52.524;13.444;2022-07-01T08:29:51;15.30;;;11.65;;
47289;SDS011;33197;52.524;13.444;2022-07-01T08:32:18;19.63;;;11.18;;
47289;SDS011;33197;52.524;13.444;2022-07-01T08:34:46;13.15;;;10.50;;
47289;SDS011;33197;52.524;13.444;2022-07-01T08:37:13;16.58;;;11.55;;
47289;SDS011;33197;52.524;13.444;2022-07-01T08:39:40;15.93;;;10.30;;
47289;SDS011;33197;52.524;13.444;2022-07-01T08:42:07;20.63;;;10.48;;
47289;SDS011;33197;52.524;13.444;2022-07-01T08:44:35;12.20;;;11.10;;
47289;SDS011;33197;52.524;13.444;2022-07-01T08:47:02;13.02;;;11.35;;
47289;SDS011;33197;52.524;13.444;2022-07-01T08:49:30;12.93;;;10.20;;
47289;SDS011;33197;52.524;13.444;2022-07-01T08:51:58;12.32;;;10.40;;
47289;SDS011;33197;52.524;13.444;2022-07-01T08:54:25;12.75;;;11.43;;
47289;SDS011;33197;52.524;13.444;2022-07-01T08:56:52;14.95;;;11.25;;
47289;SDS011;33197;52.524;13.444;2022-07-01T08:59:24;13.55;;;11.63;;
47289;SDS011;33197;52.524;13.444;2022-07-01T09:01:56;16.95;;;11.75;;
47289;SDS011;33197;52.524;13.444;2022-07-01T09:04:28;12.88;;;11.48;;
47289;SDS011;33197;52.524;13.444;2022-07-01T09:07:01;12.75;;;11.38;;
47289;SDS011;33197;52.524;13.444;2022-07-01T09:09:33;17.98;;;10.88;;
47289;SDS011;33197;52.524;13.444;2022-07-01T09:12:02;18.27;;;11.88;;
47289;SDS011;33197;52.524;13.444;2022-07-01T09:14:30;15.20;;;11.05;;
47289;SDS011;33197;52.524;13.444;2022-07-01T09:17:00;13.13;;;11.73;;
47289;SDS011;33197;52.524;13.444;2022-07-01T09:19:29;15.93;;;11.68;;
47289;SDS011;33197;52.524;13.444;2022-07-01T09:21:58;14.23;;;11.48;;
47289;SDS011;33197;52.524;13.444;2022-07-01T09:27:09;13.65;;;12.25;;
47289;SDS011;33197;52.524;13.444;2022-07-01T09:32:09;13.15;;;10.93;;
47289;SDS011;33197;52.524;13.444;2022-07-01T09:37:13;32.80;;;4.78;;
47289;SDS011;33197;52.524;13.444;2022-07-01T09:39:48;15.35;;;3.70;;
47289;SDS011;33197;52.524;13.444;2022-07-01T09:42:18;12.82;;;3.20;;
47289;SDS011;33197;52.524;13.444;2022-07-01T09:44:59;29.85;;;3.05;;
47289;SDS011;33197;52.524;13.444;2022-07-01T09:47:32;8.85;;;2.83;;
47289;SDS011;33197;52.524;13.444;2022-07-01T09:50:02;21.27;;;2.47;;
47289;SDS011;33197;52.524;13.444;2022-07-01T09:52:30;53.40;;;3.53;;
47289;SDS011;33197;52.524;13.444;2022-07-01T09:55:04;12.73;;;2.20;;
47289;SDS011;33197;52.524;13.444;2022-07-01T09:57:31;24.73;;;2.72;;
47289;SDS011;33197;52.524;13.444;2022-07-01T09:59:59;21.02;;;1.60;;
47289;SDS011;33197;52.524;13.444;2022-07-01T10:02:27;7.95;;;1.58;;
47289;SDS011;33197;52.524;13.444;2022-07-01T10:05:15;17.13;;;1.70;;
47289;SDS011;33197;52.524;13.444;2022-07-01T10:13:40;5.68;;;1.52;;
47289;SDS011;33197;52.524;13.444;2022-07-01T10:16:09;15.15;;;1.75;;
47289;SDS011;33197;52.524;13.444;2022-07-01T10:18:37;12.18;;;1.95;;
47289;SDS011;33197;52.524;13.444;2022-07-01T10:21:04;9.27;;;1.42;;
47289;SDS011;33197;52.524;13.444;2022-07-01T10:23:39;3.92;;;1.50;;
47289;SDS011;33197;52.524;13.444;2022-07-01T10:26:08;5.80;;;1.48;;
47289;SDS011;33197;52.524;13.444;2022-07-01T10:31:12;6.10;;;1.40;;
47289;SDS011;33197;52.524;13.444;2022-07-01T10:36:30;5.40;;;1.98;;
47289;SDS011;33197;52.524;13.444;2022-07-01T10:44:13;6.07;;;2.03;;
47289;SDS011;33197;52.524;13.444;2022-07-01T10:46:48;5.85;;;2.20;;
47289;SDS011;33197;52.524;13.444;2022-07-01T10:52:11;3.28;;;2.00;;
47289;SDS011;33197;52.524;13.444;2022-07-01T10:59:42;4.85;;;2.40;;
47289;SDS011;33197;52.524;13.444;2022-07-01T11:02:14;8.13;;;1.50;;
47289;SDS011;33197;52.524;13.444;2022-07-01T11:04:49;4.00;;;1.27;;
47289;SDS011;33197;52.524;13.444;2022-07-01T11:07:17;2.42;;;1.08;;
47289;SDS011;33197;52.524;13.444;2022-07-01T11:09:44;4.50;;;1.63;;
47289;SDS011;33197;52.524;13.444;2022-07-01T11:12:14;2.47;;;1.02;;
47289;SDS011;33197;52.524;13.444;2022-07-01T11:14:43;18.67;;;1.50;;
47289;SDS011;33197;52.524;13.444;2022-07-01T11:17:12;7.20;;;0.88;;
47289;SDS011;33197;52.524;13.444;2022-07-01T11:19:42;8.23;;;1.10;;
47289;SDS011;33197;52.524;13.444;2022-07-01T11:22:33;2.38;;;0.80;;
47289;SDS011;33197;52.524;13.444;2022-07-01T11:25:11;3.53;;;0.70;;
47289;SDS011;33197;52.524;13.444;2022-07-01T11:27:40;17.00;;;1.83;;
47289;SDS011;33197;52.524;13.444;2022-07-01T11:30:13;2.97;;;0.88;;
47289;SDS011;33197;52.524;13.444;2022-07-01T11:32:50;5.20;;;1.20;;
47289;SDS011;33197;52.524;13.444;2022-07-01T11:35:28;12.27;;;1.27;;
47289;SDS011;33197;52.524;13.444;2022-07-01T11:38:16;8.70;;;0.98;;
47289;SDS011;33197;52.524;13.444;2022-07-01T11:41:04;3.75;;;0.80;;
47289;SDS011;33197;52.524;13.444;2022-07-01T11:43:34;4.55;;;0.90;;
47289;SDS011;33197;52.524;13.444;2022-07-01T11:46:04;5.63;;;1.10;;
47289;SDS011;33197;52.524;13.444;2022-07-01T11:48:39;3.38;;;0.93;;
47289;SDS011;33197;52.524;13.444;2022-07-01T11:51:23;9.27;;;1.30;;
47289;SDS011;33197;52.524;13.444;2022-07-01T11:53:54;4.05;;;1.08;;
47289;SDS011;33197;52.524;13.444;2022-07-01T11:56:29;1.38;;;0.90;;
47289;SDS011;33197;52.524;13.444;2022-07-01T11:58:58;3.20;;;1.00;;
47289;SDS011;33197;52.524;13.444;2022-07-01T12:01:30;3.00;;;1.00;;
47289;SDS011;33197;52.524;13.444;2022-07-01T12:03:59;3.08;;;1.00;;
47289;SDS011;33197;52.524;13.444;2022-07-01T12:06:29;2.20;;;0.90;;
47289;SDS011;33197;52.524;13.444;2022-07-01T12:08:57;2.25;;;0.98;;
47289;SDS011;33197;52.524;13.444;2022-07-01T12:11:26;2.45;;;1.15;;
47289;SDS011;33197;52.524;13.444;2022-07-01T12:14:04;1.67;;;1.20;;
47289;SDS011;33197;52.524;13.444;2022-07-01T12:16:41;5.60;;;1.65;;
47289;SDS011;33197;52.524;13.444;2022-07-01T12:19:09;2.60;;;1.40;;
47289;SDS011;33197;52.524;13.444;2022-07-01T12:21:50;2.72;;;2.00;;
47289;SDS011;33197;52.524;13.444;2022-07-01T12:24:21;3.20;;;2.38;;
47289;SDS011;33197;52.524;13.444;2022-07-01T12:29:26;3.70;;;2.83;;
47289;SDS011;33197;52.524;13.444;2022-07-01T12:32:04;8.18;;;3.10;;
47289;SDS011;33197;52.524;13.444;2022-07-01T12:34:46;5.65;;;3.55;;
47289;SDS011;33197;52.524;13.444;2022-07-01T12:40:03;4.05;;;3.40;;
47289;SDS011;33197;52.524;13.444;2022-07-01T12:42:51;4.15;;;3.75;;
47289;SDS011;33197;52.524;13.444;2022-07-01T12:45:22;3.13;;;2.83;;
47289;SDS011;33197;52.524;13.444;2022-07-01T12:47:53;6.32;;;3.63;;
47289;SDS011;33197;52.524;13.444;2022-07-01T12:50:23;5.45;;;3.22;;
47289;SDS011;33197;52.524;13.444;2022-07-01T12:53:04;5.53;;;3.70;;
47289;SDS011;33197;52.524;13.444;2022-07-01T12:55:39;4.47;;;3.45;;
47289;SDS011;33197;52.524;13.444;2022-07-01T12:58:09;4.95;;;3.25;;
47289;SDS011;33197;52.524;13.444;2022-07-01T13:00:38;5.15;;;3.38;;
47289;SDS011;33197;52.524;13.444;2022-07-01T13:03:06;4.57;;;3.88;;
47289;SDS011;33197;52.524;13.444;2022-07-01T13:05:35;3.72;;;3.33;;
47289;SDS011;33197;52.524;13.444;2022-07-01T13:08:03;4.35;;;3.92;;
47289;SDS011;33197;52.524;13.444;2022-07-01T13:10:31;4.22;;;3.58;;
47289;SDS011;33197;52.524;13.444;2022-07-01T13:12:59;4.07;;;3.60;;
47289;SDS011;33197;52.524;13.444;2022-07-01T13:15:27;3.65;;;3.35;;
47289;SDS011;33197;52.524;13.444;2022-07-01T13:17:54;4.03;;;3.15;;
47289;SDS011;33197;52.524;13.444;2022-07-01T13:20:21;4.20;;;3.55;;
47289;SDS011;33197;52.524;13.444;2022-07-01T13:22:48;4.57;;;3.60;;
47289;SDS011;33197;52.524;13.444;2022-07-01T13:25:16;4.78;;;3.08;;
47289;SDS011;33197;52.524;13.444;2022-07-01T13:27:43;6.35;;;3.90;;
47289;SDS011;33197;52.524;13.444;2022-07-01T13:30:11;3.75;;;3.42;;
47289;SDS011;33197;52.524;13.444;2022-07-01T13:32:40;5.15;;;3.70;;
47289;SDS011;33197;52.524;13.444;2022-07-01T13:35:08;7.50;;;4.43;;
47289;SDS011;33197;52.524;13.444;2022-07-01T13:37:36;5.03;;;3.25;;
47289;SDS011;33197;52.524;13.444;2022-07-01T13:40:04;3.40;;;3.10;;
47289;SDS011;33197;52.524;13.444;2022-07-01T13:42:32;3.67;;;3.35;;
47289;SDS011;33197;52.524;13.444;2022-07-01T13:45:01;4.05;;;3.20;;
47289;SDS011;33197;52.524;13.444;2022-07-01T13:47:28;5.80;;;3.03;;
47289;SDS011;33197;52.524;13.444;2022-07-01T13:49:56;6.78;;;3.17;;
47289;SDS011;33197;52.524;13.444;2022-07-01T13:52:23;6.70;;;2.95;;
47289;SDS011;33197;52.524;13.444;2022-07-01T13:54:50;3.28;;;2.92;;
47289;SDS011;33197;52.524;13.444;2022-07-01T13:57:18;4.35;;;3.22;;
47289;SDS011;33197;52.524;13.444;2022-07-01T13:59:45;3.25;;;2.92;;
47289;SDS011;33197;52.524;13.444;2022-07-01T14:02:13;3.55;;;3.20;;
47289;SDS011;33197;52.524;13.444;2022-07-01T14:04:40;2.70;;;2.50;;
47289;SDS011;33197;52.524;13.444;2022-07-01T14:07:07;3.83;;;2.70;;
47289;SDS011;33197;52.524;13.444;2022-07-01T14:09:35;4.72;;;3.05;;
47289;SDS011;33197;52.524;13.444;2022-07-01T14:12:03;2.80;;;2.35;;
47289;SDS011;33197;52.524;13.444;2022-07-01T14:14:38;4.23;;;2.80;;
47289;SDS011;33197;52.524;13.444;2022-07-01T14:17:05;3.72;;;2.75;;
47289;SDS011;33197;52.524;13.444;2022-07-01T14:19:32;3.63;;;2.88;;
47289;SDS011;33197;52.524;13.444;2022-07-01T14:22:00;4.60;;;3.30;;
47289;SDS011;33197;52.524;13.444;2022-07-01T14:24:29;2.97;;;2.67;;
47289;SDS011;33197;52.524;13.444;2022-07-01T14:26:56;3.40;;;3.03;;
47289;SDS011;33197;52.524;13.444;2022-07-01T14:29:24;3.20;;;2.90;;
47289;SDS011;33197;52.524;13.444;2022-07-01T14:31:51;2.97;;;2.53;;
47289;SDS011;33197;52.524;13.444;2022-07-01T14:34:18;3.08;;;2.75;;
47289;SDS011;33197;52.524;13.444;2022-07-01T14:36:45;3.90;;;3.00;;
47289;SDS011;33197;52.524;13.444;2022-07-01T14:39:13;9.57;;;3.00;;
47289;SDS011;33197;52.524;13.444;2022-07-01T14:41:40;4.55;;;2.75;;
47289;SDS011;33197;52.524;13.444;2022-07-01T14:44:07;3.83;;;2.78;;
47289;SDS011;33197;52.524;13.444;2022-07-01T14:46:35;5.30;;;3.00;;
47289;SDS011;33197;52.524;13.444;2022-07-01T14:49:02;3.58;;;2.70;;
47289;SDS011;33197;52.524;13.444;2022-07-01T14:51:29;2.45;;;2.22;;
47289;SDS011;33197;52.524;13.444;2022-07-01T14:53:57;2.65;;;2.38;;
47289;SDS011;33197;52.524;13.444;2022-07-01T14:56:24;5.65;;;2.45;;
47289;SDS011;33197;52.524;13.444;2022-07-01T14:58:51;4.95;;;2.65;;
47289;SDS011;33197;52.524;13.444;2022-07-01T15:01:19;2.42;;;2.20;;
47289;SDS011;33197;52.524;13.444;2022-07-01T15:03:46;2.70;;;2.33;;
47289;SDS011;33197;52.524;13.444;2022-07-01T15:06:13;3.20;;;2.88;;
47289;SDS011;33197;52.524;13.444;2022-07-01T15:08:40;4.90;;;3.65;;
47289;SDS011;33197;52.524;13.444;2022-07-01T15:11:09;3.65;;;3.20;;
47289;SDS011;33197;52.524;13.444;2022-07-01T15:13:36;3.28;;;2.97;;
47289;SDS011;33197;52.524;13.444;2022-07-01T15:16:04;4.32;;;3.92;;
47289;SDS011;33197;52.524;13.444;2022-07-01T15:18:36;4.82;;;3.22;;
47289;SDS011;33197;52.524;13.444;2022-07-01T15:21:03;3.38;;;3.08;;
47289;SDS011;33197;52.524;13.444;2022-07-01T15:23:30;5.35;;;3.13;;
47289;SDS011;33197;52.524;13.444;2022-07-01T15:25:57;5.30;;;3.40;;